Stations météo

Publicité
Vannes/Sene, France (7210): Température de l'air & dewpoint: 15.07.2019 17:00:00 - 21.07.2019 17:00:00 (CEST)Vannes/Sene, France (7210): Vitesse du vent & gusts: 15.07.2019 17:00:00 - 21.07.2019 17:00:00 (CEST)Vannes/Sene, France (7210): Direction du vent: 15.07.2019 17:00:00 - 21.07.2019 17:00:00 (CEST)Vannes/Sene, France (7210): Ensoleillement: 15.07.2019 17:00:00 - 21.07.2019 17:00:00 (CEST)Vannes/Sene, France (7210): Quantités de précipitations: 15.07.2019 17:00:00 - 21.07.2019 17:00:00 (CEST)
Date & Time tt [°C] td [°C] ff [km/h] ff [knt] fx [km/h] fx [knt] dd sd [min] rr [mm]
21.07.2019 17:00:00 - - - - - - - - -
21.07.2019 16:00:00 23,8 17,3 15 8 28 15 WSW 54 0,0
21.07.2019 15:00:00 24,1 16,4 15 8 28 15 WSW 60 0,0
21.07.2019 14:00:00 24,1 15,6 13 7 26 14 WSW 60 -
21.07.2019 13:00:00 24,2 15,4 9 5 16 9 WSW 60 0,0
21.07.2019 12:00:00 22,5 15,6 5 3 11 6 SSW 36 0,0
21.07.2019 11:00:00 20,6 15,4 4 2 11 6 WSW 18 0,0
21.07.2019 10:00:00 21,0 16,2 4 2 9 5 E 60 0,0
21.07.2019 09:00:00 17,7 16,2 5 3 8 4 ENE 36 0,0
21.07.2019 08:00:00 15,4 15,2 2 1 8 4 NE 12 -
21.07.2019 07:00:00 13,9 13,7 4 2 8 4 NE 0 0,2
21.07.2019 06:00:00 13,9 13,7 2 1 5 3 E 0 0,0
21.07.2019 05:00:00 13,9 13,4 2 1 4 2 E 0 0,0
21.07.2019 04:00:00 14,5 14,0 0 0 4 2 N 0 0,0
21.07.2019 03:00:00 15,4 14,8 2 1 8 4 N 0 0,0
21.07.2019 02:00:00 16,7 15,6 5 3 11 6 WNW 0 -
21.07.2019 01:00:00 16,9 15,9 5 3 11 6 WNW 0 0,0
21.07.2019 00:00:00 17,3 15,6 4 2 18 10 WNW 0 0,0
20.07.2019 23:00:00 18,3 15,9 8 4 24 13 W 0 0,0
20.07.2019 22:00:00 19,1 15,8 11 6 31 17 W 0 0,0
20.07.2019 21:00:00 20,4 15,4 16 9 37 20 W 54 0,0
20.07.2019 20:00:00 22,0 16,0 15 8 35 19 W 60 -
20.07.2019 19:00:00 22,4 15,3 18 10 39 21 W 60 0,0
20.07.2019 18:00:00 22,7 16,7 21 11 44 24 WSW 60 0,0
20.07.2019 17:00:00 23,4 16,4 18 10 37 20 WSW 60 0,0
20.07.2019 16:00:00 23,6 16,6 16 9 37 20 WSW 48 0,0
20.07.2019 15:00:00 22,0 16,3 15 8 34 18 WSW 12 0,0
20.07.2019 14:00:00 22,4 16,2 13 7 31 17 W 12 -
20.07.2019 13:00:00 22,6 17,1 15 8 34 18 WSW 24 0,0
20.07.2019 12:00:00 22,9 18,2 16 9 35 19 WSW 54 0,0
20.07.2019 11:00:00 22,1 18,5 15 8 29 16 WSW 24 0,0
20.07.2019 10:00:00 21,1 19,2 13 7 26 14 SW 12 0,0
20.07.2019 09:00:00 19,6 18,6 13 7 37 20 WSW 0 0,6
20.07.2019 08:00:00 19,5 18,0 13 7 34 18 SW 0 -
20.07.2019 07:00:00 19,8 17,8 13 7 34 18 SW 0 0,0
20.07.2019 06:00:00 19,7 17,5 15 8 29 16 WSW 0 0,0
20.07.2019 05:00:00 19,7 18,0 13 7 29 16 WSW 0 0,0
20.07.2019 04:00:00 19,7 17,5 11 6 28 15 SW 0 0,0
20.07.2019 03:00:00 19,5 16,9 11 6 28 15 SW 0 0,0
20.07.2019 02:00:00 19,6 16,8 11 6 24 13 SW 0 -
20.07.2019 01:00:00 19,6 16,8 9 5 22 12 SW 0 0,0
20.07.2019 00:00:00 19,9 16,9 9 5 18 10 SSW 0 0,0
19.07.2019 23:00:00 19,8 16,6 8 4 18 10 SW 0 0,0
19.07.2019 22:00:00 19,8 16,6 8 4 24 13 SW 0 0,0
19.07.2019 21:00:00 20,0 16,2 9 5 24 13 SW 18 0,0
19.07.2019 20:00:00 20,8 16,4 11 6 26 14 SW 24 -
19.07.2019 19:00:00 22,3 16,8 13 7 26 14 SSW 36 0,0
19.07.2019 18:00:00 22,1 16,6 11 6 29 16 SW 18 0,0
19.07.2019 17:00:00 23,3 16,6 15 8 29 16 SSW 48 0,0
19.07.2019 16:00:00 22,9 16,7 13 7 29 16 SW 12 0,0
19.07.2019 15:00:00 21,7 16,4 15 8 29 16 SSW 0 0,0
19.07.2019 14:00:00 23,0 16,3 15 8 29 16 SSW 54 -
19.07.2019 13:00:00 22,3 15,9 15 8 28 15 SSW 24 0,0
19.07.2019 12:00:00 21,8 15,4 13 7 26 14 SW 24 0,0
19.07.2019 11:00:00 20,0 15,6 13 7 34 18 SW 0 0,0
19.07.2019 10:00:00 20,3 15,3 13 7 37 20 SW 30 0,0
19.07.2019 09:00:00 19,0 15,1 13 7 26 14 SSW 30 0,0
19.07.2019 08:00:00 15,9 15,3 2 1 5 3 ENE 48 -
19.07.2019 07:00:00 12,8 12,6 4 2 5 3 ENE 0 0,0
19.07.2019 06:00:00 12,1 11,8 4 2 8 4 ENE 0 0,0
19.07.2019 05:00:00 12,2 11,7 4 2 5 3 ENE 0 0,0
19.07.2019 04:00:00 12,7 12,2 0 0 2 1 N 0 0,0
19.07.2019 03:00:00 13,1 12,2 0 0 8 4 N 0 0,0
19.07.2019 02:00:00 14,4 12,6 4 2 11 6 NW 0 -
19.07.2019 01:00:00 15,8 13,3 5 3 22 12 WNW 0 0,0
19.07.2019 00:00:00 17,1 13,8 13 7 26 14 W 0 0,0
18.07.2019 23:00:00 17,5 13,2 11 6 26 14 W 0 0,0
18.07.2019 22:00:00 18,0 13,7 11 6 31 17 W 0 0,0
18.07.2019 21:00:00 19,9 14,0 16 9 39 21 W 60 0,0
18.07.2019 20:00:00 21,6 13,8 16 9 41 22 W 60 -
18.07.2019 19:00:00 22,5 14,1 18 10 39 21 W 60 0,0
18.07.2019 18:00:00 23,2 16,7 15 8 41 22 WSW 54 0,0
18.07.2019 17:00:00 23,1 17,6 18 10 39 21 WSW 48 0,0
18.07.2019 16:00:00 22,4 16,9 15 8 31 17 WSW 48 0,0
18.07.2019 15:00:00 21,3 18,5 13 7 29 16 WSW 24 0,0
18.07.2019 14:00:00 21,2 18,8 13 7 31 17 WSW 12 -
18.07.2019 13:00:00 18,8 17,6 8 4 34 18 W 0 2,0
18.07.2019 12:00:00 18,9 17,9 13 7 34 18 W 0 0,8
18.07.2019 11:00:00 19,3 18,1 15 8 34 18 WSW 0 0,2
18.07.2019 10:00:00 19,3 17,4 13 7 29 16 SW 0 0,0
18.07.2019 09:00:00 19,0 17,0 13 7 31 17 WSW 0 0,0
18.07.2019 08:00:00 18,9 16,3 9 5 26 14 WSW 0 -
18.07.2019 07:00:00 17,2 16,2 9 5 18 10 W 0 0,0
18.07.2019 06:00:00 13,9 13,6 2 1 4 2 ENE 0 0,0
18.07.2019 05:00:00 13,4 12,8 4 2 8 4 W 0 0,0
18.07.2019 04:00:00 13,5 12,4 2 1 8 4 WNW 0 0,0
18.07.2019 03:00:00 14,7 12,6 4 2 8 4 WNW 0 0,0
18.07.2019 02:00:00 15,7 12,3 5 3 15 8 WNW 0 -
18.07.2019 01:00:00 16,6 12,1 5 3 18 10 WNW 0 0,0
18.07.2019 00:00:00 17,6 11,6 9 5 24 13 WNW 0 0,0
17.07.2019 23:00:00 18,3 12,7 8 4 22 12 WNW 0 0,0
17.07.2019 22:00:00 19,7 14,1 9 5 29 16 WNW 0 0,0
17.07.2019 21:00:00 21,7 14,8 13 7 28 15 W 54 0,0
17.07.2019 20:00:00 23,2 15,5 15 8 31 17 WSW 48 -
17.07.2019 19:00:00 23,6 16,4 11 6 31 17 SW 60 0,0
17.07.2019 18:00:00 23,7 16,2 16 9 37 20 WSW 60 0,0
17.07.2019 17:00:00 23,2 16,0 21 11 39 21 WSW 48 0,0
17.07.2019 16:00:00 23,0 16,3 16 9 35 19 SW 54 0,0
17.07.2019 15:00:00 23,5 16,3 16 9 35 19 WSW 60 0,0
17.07.2019 14:00:00 24,0 15,0 15 8 29 16 WSW 60 -
17.07.2019 13:00:00 - - - - - - - - -
17.07.2019 12:00:00 23,4 11,1 8 4 18 10 WSW 60 0,0
17.07.2019 11:00:00 22,6 10,1 8 4 15 8 WSW 60 0,0
17.07.2019 10:00:00 20,8 10,3 4 2 9 5 ENE 60 0,0
17.07.2019 09:00:00 18,3 10,9 4 2 8 4 N 60 0,0
17.07.2019 08:00:00 15,3 11,3 4 2 8 4 NNW 54 -
17.07.2019 07:00:00 12,5 11,6 5 3 8 4 NW 0 0,0
17.07.2019 06:00:00 11,9 10,8 4 2 5 3 WNW 0 0,0
17.07.2019 05:00:00 11,7 10,4 0 0 4 2 N 0 0,0
17.07.2019 04:00:00 12,4 10,6 2 1 4 2 NNW 0 0,0
17.07.2019 03:00:00 14,0 11,7 4 2 5 3 NNW 0 0,0
17.07.2019 02:00:00 14,7 12,9 4 2 8 4 NNE 0 -
17.07.2019 01:00:00 15,2 13,2 2 1 8 4 NNE 0 0,0
17.07.2019 00:00:00 16,8 13,3 2 1 8 4 N 0 0,0
16.07.2019 23:00:00 18,3 11,8 4 2 9 5 WSW 0 0,0
16.07.2019 22:00:00 21,0 11,6 5 3 16 9 W 12 0,0
16.07.2019 21:00:00 23,5 12,5 8 4 22 12 W 60 0,0
16.07.2019 20:00:00 24,9 12,8 11 6 22 12 WSW 60 -
16.07.2019 19:00:00 25,7 14,2 13 7 28 15 WSW 60 0,0
16.07.2019 18:00:00 25,8 13,0 15 8 31 17 WSW 60 0,0
16.07.2019 17:00:00 25,9 13,7 18 10 31 17 WSW 60 0,0
16.07.2019 16:00:00 26,0 14,1 16 9 31 17 WSW 60 0,0
16.07.2019 15:00:00 26,2 14,3 15 8 26 14 WSW 60 0,0
16.07.2019 14:00:00 26,2 13,3 9 5 18 10 SW 60 -
16.07.2019 13:00:00 25,8 13,6 9 5 15 8 WSW 60 0,0
16.07.2019 12:00:00 24,8 13,7 5 3 13 7 SW 60 0,0
16.07.2019 11:00:00 23,7 13,0 2 1 11 6 NNE 60 0,0
16.07.2019 10:00:00 21,0 13,2 4 2 15 8 ENE 60 0,0
16.07.2019 09:00:00 18,8 13,4 5 3 9 5 ENE 60 0,0
16.07.2019 08:00:00 16,3 13,4 4 2 8 4 N 42 -
16.07.2019 07:00:00 13,1 12,0 2 1 8 4 N 0 0,0
16.07.2019 06:00:00 13,7 12,6 5 3 8 4 NNE 0 0,0
16.07.2019 05:00:00 13,1 12,0 2 1 5 3 N 0 0,0
16.07.2019 04:00:00 13,7 12,6 2 1 8 4 N 0 0,0
16.07.2019 03:00:00 15,5 12,6 5 3 13 7 N 0 0,0
16.07.2019 02:00:00 15,6 11,8 5 3 15 8 N 0 -
16.07.2019 01:00:00 16,7 12,0 8 4 16 9 NNE 0 0,0
16.07.2019 00:00:00 17,4 12,1 8 4 22 12 NE 0 0,0
15.07.2019 23:00:00 19,3 12,6 11 6 26 14 NNE 0 0,0
15.07.2019 22:00:00 19,6 13,8 4 2 18 10 N 0 0,0
15.07.2019 21:00:00 21,3 14,0 9 5 26 14 WNW 24 0,0
15.07.2019 20:00:00 23,3 13,7 13 7 28 15 W 60 -
15.07.2019 19:00:00 23,8 14,5 15 8 29 16 WSW 60 0,0
15.07.2019 18:00:00 24,9 14,4 13 7 28 15 WSW 60 0,0
15.07.2019 17:00:00 25,0 14,5 13 7 28 15 WSW 60 0,0

tt = Température de l'air
td = dewpoint
ff = Vitesse du vent
fx = gusts
dd = Direction du vent
sd = Ensoleillement
rr = Quantités de précipitations

stations d'obs. à proximité